Terminal Aerodrome Forecast
Issued by NWS Caribou, ME

Home | Current Version | Previous Version | Text Only | Print | Product List | Glossary On
Versions: 1 2 3 4 5 6 7 8 9 10 11 12 13 14 15 16 17 18 19 20 21 22 23
000
FTUS41 KCAR 232300
TAFCAR
TAF
KCAR 232334Z 2400/2424 32013KT 5SM BR VCSH OVC005
     FM240200 33012KT 2SM -RA BR OVC003
     FM240600 34012G20KT 1SM -SNRA OVC003
     FM241400 36013G20KT 3SM -RA BR OVC004
     FM241800 36014G24KT 5SM -DZ BR OVC006=

USA.gov is the U.S. government's official web portal to all federal, state and local government web resources and services.